Sun Valley, Nevada
Current Conditions -  °F | °C
As of 6:55 PM on Monday 20 Oct 2014 (Local Time) from KRNO Reporting Station
Few Clouds Few Clouds  
Wind Chill: 62°   Ceiling: Unl
Heat Index: 62°   Visibility: 10mi
Dew Point: 35°   Wind: 24mph
Humidity: 37%   Direction: 210°SSW
Pressure: 29.86"   Gusts: 31mph
Location:  39.59°N, 119.77°W
Report Text: KRNO 210155Z 21021G27KT 10SM FEW070 FEW180 17/02 A2986 RMK AO2 PK WND 21027/0155 SLP083 T01670017
Loading
Personal Weather Stations






























Interactive Weather Map
Tropical Storm Tracking
New forecast layout! Learn more

10-Day Weather Forecast

Advertisements
Track Severe Weather on mobile